Archival Weather

Yakutsk

Yakutsk, Russia (UEEE)

Report from: Tuesday, June 6, 2023 8:30 AM JST
Current time: Thursday, May 30, 2024 9:14 AM JST

Current weather – Weather history – Daily summaries
Weather forecast

Temperature15.0°C (59.0°F)
Dew point4.0°C (39.2°F)
Winds 7.8 kts (4 m/s, 8.9 mph) West (280°)
Clouds Sky clear
Altimeter29.53 in.Hg (1000 mB)
Precip. events QF 10:21 AM
Relative humidity48 %
Density altitude571 ft. (174 m)
Remarks Ceiling and visibility OK
No significant changes expected in the next two hours
Flight conditions Visual Meteorological Conditions
Raw dataUEEE 052330Z 28004MPS CAVOK 15/04 Q1000 R05/09//60 NOSIG RMK QFE741
An error has occurred. This application may no longer respond until reloaded. Reload 🗙